createdAt,value
2018-06-19T00:01:00.250Z,16.53
2018-06-19T00:03:28.897Z,15.50
2018-06-19T00:05:57.353Z,13.57
2018-06-19T00:08:25.480Z,14.83
2018-06-19T00:10:54.187Z,15.10
2018-06-19T00:13:22.305Z,15.80
2018-06-19T00:15:50.459Z,15.60
2018-06-19T00:18:26.029Z,16.00
2018-06-19T00:20:56.513Z,16.13
2018-06-19T00:23:24.881Z,14.03
2018-06-19T00:25:53.050Z,16.50
2018-06-19T00:28:21.737Z,16.93
2018-06-19T00:30:50.221Z,17.80
2018-06-19T00:33:18.482Z,17.80
2018-06-19T00:35:46.629Z,18.57
2018-06-19T00:38:14.758Z,17.03
2018-06-19T00:40:43.481Z,16.30
2018-06-19T00:43:11.889Z,18.07
2018-06-19T00:45:40.035Z,17.53
2018-06-19T00:48:09.081Z,17.00
2018-06-19T00:50:37.318Z,17.57
2018-06-19T00:53:05.789Z,18.63
2018-06-19T00:55:34.237Z,20.73
2018-06-19T00:58:02.390Z,17.40
2018-06-19T01:00:30.866Z,18.43
2018-06-19T01:02:59.333Z,21.67
2018-06-19T01:05:27.794Z,19.77
2018-06-19T01:07:56.277Z,18.57
2018-06-19T01:10:24.747Z,20.03
2018-06-19T01:12:52.873Z,20.73
2018-06-19T01:15:21.029Z,16.63
2018-06-19T01:17:49.513Z,19.43
2018-06-19T01:20:17.658Z,17.20
2018-06-19T01:22:46.113Z,18.83
2018-06-19T01:25:14.241Z,18.70
2018-06-19T01:27:42.352Z,18.93
2018-06-19T01:30:10.877Z,23.13
2018-06-19T01:32:39.065Z,19.00
2018-06-19T01:35:07.273Z,17.40
2018-06-19T01:37:35.735Z,19.50
2018-06-19T01:40:04.193Z,17.83
2018-06-19T01:42:32.322Z,20.10
2018-06-19T01:45:00.465Z,20.00
2018-06-19T01:47:28.928Z,19.10
2018-06-19T01:49:57.182Z,17.83
2018-06-19T01:52:25.657Z,18.33
2018-06-19T01:54:54.150Z,17.90
2018-06-19T01:57:22.278Z,22.60
2018-06-19T01:59:50.750Z,17.73
2018-06-19T02:02:19.209Z,18.30
2018-06-19T02:04:47.654Z,18.03
2018-06-19T02:07:15.849Z,17.20
2018-06-19T02:09:43.953Z,19.23
2018-06-19T02:12:12.295Z,18.00
2018-06-19T02:14:40.756Z,18.70
2018-06-19T02:17:08.910Z,16.93
2018-06-19T02:19:37.366Z,18.77
2018-06-19T02:22:05.854Z,17.33
2018-06-19T02:24:34.313Z,17.47
2018-06-19T02:27:02.799Z,15.67
2018-06-19T02:29:31.117Z,16.60
2018-06-19T02:31:59.596Z,15.90
2018-06-19T02:34:27.719Z,17.40
2018-06-19T02:36:56.110Z,18.20
2018-06-19T02:39:24.226Z,16.20
2018-06-19T02:41:52.859Z,16.77
2018-06-19T02:44:20.966Z,15.73
2018-06-19T02:46:49.293Z,15.90
2018-06-19T02:49:17.423Z,16.03
2018-06-19T02:51:45.900Z,15.50
2018-06-19T02:54:14.027Z,16.00
2018-06-19T02:56:42.485Z,17.33
2018-06-19T02:59:10.606Z,17.13
2018-06-19T03:01:39.201Z,15.93
2018-06-19T03:04:07.510Z,16.53
2018-06-19T03:06:36.196Z,17.17
2018-06-19T03:09:07.807Z,18.30
2018-06-19T03:11:35.946Z,18.30
2018-06-19T03:14:04.101Z,18.23
2018-06-19T03:16:32.593Z,17.53
2018-06-19T03:19:00.934Z,23.73
2018-06-19T03:21:29.716Z,19.50
2018-06-19T03:23:58.117Z,20.63
2018-06-19T03:26:26.593Z,19.30
2018-06-19T03:28:55.137Z,17.30
2018-06-19T03:31:23.343Z,18.70
2018-06-19T03:33:51.669Z,17.10
2018-06-19T03:36:19.813Z,15.50
2018-06-19T03:38:48.301Z,16.93
2018-06-19T03:41:16.921Z,17.10
2018-06-19T03:43:45.392Z,16.03
2018-06-19T03:46:13.850Z,16.43
2018-06-19T03:48:42.813Z,16.47
2018-06-19T03:51:10.965Z,15.73
2018-06-19T03:53:39.438Z,13.97
2018-06-19T03:56:07.912Z,15.47
2018-06-19T03:58:36.411Z,14.57
2018-06-19T04:01:04.605Z,12.60
2018-06-19T04:03:32.725Z,12.50
2018-06-19T04:06:00.891Z,11.97
2018-06-19T04:08:29.033Z,11.30
2018-06-19T04:10:57.733Z,11.07
2018-06-19T04:13:26.218Z,11.67
2018-06-19T04:15:54.353Z,12.17
2018-06-19T04:18:22.531Z,11.07
2018-06-19T04:20:50.905Z,9.87
2018-06-19T04:23:19.274Z,9.87
2018-06-19T04:25:47.586Z,9.50
2018-06-19T04:28:15.724Z,8.63
2018-06-19T04:30:44.187Z,9.80
2018-06-19T04:33:12.686Z,9.60
2018-06-19T04:35:40.861Z,8.47
2018-06-19T04:38:09.030Z,9.30
2018-06-19T04:40:37.208Z,14.00
2018-06-19T04:43:06.130Z,9.03
2018-06-19T04:48:24.859Z,9.93
2018-06-19T04:50:53.509Z,8.70
2018-06-19T04:53:21.638Z,8.83
2018-06-19T04:55:49.749Z,8.70
2018-06-19T04:58:17.882Z,9.40
2018-06-19T05:00:45.998Z,8.60
2018-06-19T05:03:14.446Z,8.63
2018-06-19T05:05:42.582Z,7.70
2018-06-19T05:08:10.894Z,7.80
2018-06-19T05:10:39.006Z,9.80
2018-06-19T05:13:07.126Z,8.87
2018-06-19T05:15:35.646Z,7.00
2018-06-19T05:18:03.787Z,9.10
2018-06-19T05:20:31.901Z,7.93
2018-06-19T05:23:00.561Z,10.47
2018-06-19T05:25:28.713Z,8.40
2018-06-19T05:27:56.841Z,8.80
2018-06-19T05:30:25.329Z,8.73
2018-06-19T05:32:53.621Z,7.67
2018-06-19T05:35:22.090Z,8.93
2018-06-19T05:37:50.218Z,8.60
2018-06-19T05:40:18.313Z,9.70
2018-06-19T05:42:46.422Z,7.10
2018-06-19T05:45:14.945Z,7.67
2018-06-19T05:47:43.069Z,7.10
2018-06-19T05:50:11.189Z,10.10
2018-06-19T05:52:39.318Z,7.30
2018-06-19T05:55:07.422Z,5.17
2018-06-19T05:57:35.542Z,8.23
2018-06-19T06:00:03.703Z,8.23
2018-06-19T06:02:32.325Z,6.50
2018-06-19T06:05:00.442Z,10.33
2018-06-19T06:07:29.113Z,8.30
2018-06-19T06:09:57.213Z,7.47
2018-06-19T06:12:25.329Z,7.00
2018-06-19T06:14:53.461Z,5.93
2018-06-19T06:17:21.577Z,5.43
2018-06-19T06:19:49.706Z,5.70
2018-06-19T06:22:18.160Z,9.73
2018-06-19T06:24:46.311Z,6.17
2018-06-19T06:27:14.926Z,8.07
2018-06-19T06:29:43.063Z,6.50
2018-06-19T06:32:11.504Z,8.40
2018-06-19T06:34:39.638Z,5.63
2018-06-19T06:37:07.757Z,6.27
2018-06-19T06:39:36.061Z,4.93
2018-06-19T06:42:04.182Z,10.00
2018-06-19T06:44:32.626Z,6.57
2018-06-19T06:47:00.789Z,9.83
2018-06-19T06:49:28.934Z,5.63
2018-06-19T06:51:57.037Z,7.13
2018-06-19T06:54:25.477Z,5.80
2018-06-19T06:56:57.980Z,5.57
2018-06-19T06:59:26.441Z,8.97
2018-06-19T07:01:54.550Z,20.23
2018-06-19T07:04:22.661Z,6.13
2018-06-19T07:06:50.789Z,5.97
2018-06-19T07:09:19.087Z,8.80
2018-06-19T07:11:47.212Z,6.73
2018-06-19T07:14:15.905Z,8.20
2018-06-19T07:16:44.370Z,7.00
2018-06-19T07:19:12.889Z,6.30
2018-06-19T07:21:41.403Z,7.20
2018-06-19T07:24:09.906Z,5.67
2018-06-19T07:26:38.683Z,9.20
2018-06-19T07:29:06.810Z,8.20
2018-06-19T07:31:34.922Z,6.57
2018-06-19T07:34:03.046Z,6.47
2018-06-19T07:36:31.481Z,6.67
2018-06-19T07:38:59.975Z,7.30
2018-06-19T07:41:28.093Z,9.07
2018-06-19T07:43:56.295Z,7.53
2018-06-19T07:46:24.570Z,8.07
2018-06-19T07:48:53.030Z,9.03
2018-06-19T07:51:21.139Z,8.33
2018-06-19T07:53:49.267Z,6.50
2018-06-19T07:56:17.747Z,7.83
2018-06-19T07:58:45.868Z,8.30
2018-06-19T08:01:14.001Z,8.33
2018-06-19T08:03:42.317Z,8.83
2018-06-19T08:06:10.430Z,9.53
2018-06-19T08:08:38.533Z,9.70
2018-06-19T08:11:07.002Z,11.20
2018-06-19T08:13:35.488Z,12.77
2018-06-19T08:16:04.118Z,8.33
2018-06-19T08:18:32.561Z,9.30
2018-06-19T08:21:00.689Z,9.00
2018-06-19T08:23:28.817Z,10.33
2018-06-19T08:25:56.951Z,9.87
2018-06-19T08:28:25.075Z,14.20
2018-06-19T08:30:53.526Z,11.27
2018-06-19T08:33:21.634Z,9.90
2018-06-19T08:35:49.758Z,14.60
2018-06-19T08:38:17.894Z,13.93
2018-06-19T08:40:46.062Z,12.10
2018-06-19T08:43:14.354Z,14.70
2018-06-19T08:45:42.477Z,14.30
2018-06-19T08:48:10.891Z,15.20
2018-06-19T08:50:39.578Z,13.90
2018-06-19T08:53:07.969Z,18.67
2018-06-19T08:55:36.465Z,18.67
2018-06-19T08:58:05.023Z,18.80
2018-06-19T09:00:33.475Z,16.70
2018-06-19T09:03:01.842Z,19.10
2018-06-19T09:05:30.273Z,18.80
2018-06-19T09:07:58.598Z,18.30
2018-06-19T09:10:26.749Z,19.00
2018-06-19T09:12:54.898Z,22.63
2018-06-19T09:15:23.378Z,19.33
2018-06-19T09:17:51.501Z,18.77
2018-06-19T09:20:19.657Z,21.20
2018-06-19T09:22:47.973Z,21.17
2018-06-19T09:25:16.410Z,19.23
2018-06-19T09:27:44.558Z,18.97
2018-06-19T09:30:13.043Z,20.83
2018-06-19T09:32:41.173Z,19.57
2018-06-19T09:35:09.841Z,19.53
2018-06-19T09:37:38.263Z,19.63
2018-06-19T09:40:06.392Z,20.07
2018-06-19T09:42:34.517Z,19.60
2018-06-19T09:45:03.290Z,18.77
2018-06-19T09:47:31.750Z,19.10
2018-06-19T09:49:59.935Z,18.13
2018-06-19T09:52:28.297Z,18.70
2018-06-19T09:54:56.686Z,20.40
2018-06-19T09:57:25.055Z,20.93
2018-06-19T09:59:53.238Z,18.20
2018-06-19T10:02:21.603Z,21.40
2018-06-19T10:04:49.763Z,21.17
2018-06-19T10:07:21.569Z,25.37
2018-06-19T10:09:51.502Z,23.13
2018-06-19T10:12:20.355Z,27.90
2018-06-19T10:14:48.646Z,20.50
2018-06-19T10:17:17.025Z,24.63
2018-06-19T10:19:45.418Z,24.50
2018-06-19T10:22:13.881Z,24.50
2018-06-19T10:24:42.348Z,22.60
2018-06-19T10:27:10.508Z,21.67
2018-06-19T10:29:38.835Z,21.07
2018-06-19T10:32:07.289Z,20.03
2018-06-19T10:34:35.419Z,18.73
2018-06-19T10:37:04.133Z,20.37
2018-06-19T10:39:32.597Z,20.70
2018-06-19T10:42:00.747Z,19.97
2018-06-19T10:44:29.194Z,19.03
2018-06-19T10:46:57.336Z,18.53
2018-06-19T10:49:25.782Z,19.80
2018-06-19T10:51:54.257Z,21.70
2018-06-19T10:54:22.382Z,17.90
2018-06-19T10:56:50.558Z,16.20
2018-06-19T10:59:19.007Z,19.03
2018-06-19T11:01:47.125Z,16.27
2018-06-19T11:04:15.282Z,15.80
2018-06-19T11:06:43.407Z,15.03
2018-06-19T11:09:12.605Z,17.40
2018-06-19T11:11:41.202Z,17.10
2018-06-19T11:14:09.699Z,18.07
2018-06-19T11:16:38.214Z,17.13
2018-06-19T11:19:06.362Z,19.53
2018-06-19T11:21:34.822Z,17.40
2018-06-19T11:24:02.991Z,16.97
2018-06-19T11:26:31.302Z,18.60
2018-06-19T11:28:59.497Z,17.13
2018-06-19T11:31:28.102Z,17.73
2018-06-19T11:33:56.247Z,15.40
2018-06-19T11:36:24.379Z,16.70
2018-06-19T11:38:52.488Z,15.83
2018-06-19T11:41:20.951Z,18.83
2018-06-19T11:43:49.401Z,18.10
2018-06-19T11:46:18.025Z,16.10
2018-06-19T11:48:46.131Z,19.10
2018-06-19T11:51:14.590Z,23.00
2018-06-19T11:53:42.723Z,21.60
2018-06-19T11:56:11.172Z,19.90
2018-06-19T11:58:39.605Z,17.30
2018-06-19T12:01:08.150Z,16.00
2018-06-19T12:03:36.454Z,16.33
2018-06-19T12:06:04.909Z,15.40
2018-06-19T12:08:33.042Z,16.73
2018-06-19T12:11:01.177Z,16.30
2018-06-19T12:13:29.322Z,16.23
2018-06-19T12:15:57.994Z,15.90
2018-06-19T12:18:26.124Z,17.30
2018-06-19T12:20:54.298Z,15.70
2018-06-19T12:23:22.673Z,15.87
2018-06-19T12:25:50.791Z,19.30
2018-06-19T12:28:19.254Z,16.27
2018-06-19T12:30:47.557Z,17.00
2018-06-19T12:33:15.689Z,15.30
2018-06-19T12:35:43.810Z,14.50
2018-06-19T12:38:11.970Z,14.43
2018-06-19T12:40:40.661Z,16.10
2018-06-19T12:43:08.808Z,18.20
2018-06-19T12:45:37.246Z,17.93
2018-06-19T12:48:05.879Z,20.03
2018-06-19T12:50:45.235Z,17.93
2018-06-19T12:53:24.813Z,18.90
2018-06-19T12:56:04.462Z,19.73
2018-06-19T12:58:32.629Z,17.93
2018-06-19T13:01:00.746Z,17.63
2018-06-19T13:03:40.377Z,18.73
2018-06-19T13:06:19.930Z,18.43
2018-06-19T13:08:48.097Z,16.63
2018-06-19T13:11:16.547Z,16.50
2018-06-19T13:13:56.077Z,18.33
2018-06-19T13:16:35.642Z,20.23
2018-06-19T13:19:15.189Z,16.40
2018-06-19T13:21:43.650Z,17.87
2018-06-19T13:24:11.782Z,18.60
2018-06-19T13:26:39.920Z,17.27
2018-06-19T13:29:46.297Z,18.90
2018-06-19T13:32:14.621Z,18.23
2018-06-19T13:34:43.337Z,16.90
2018-06-19T13:37:11.685Z,21.47
2018-06-19T13:39:40.573Z,20.03
2018-06-19T13:42:21.401Z,20.00
2018-06-19T13:45:02.704Z,18.77
2018-06-19T13:47:31.358Z,20.00
2018-06-19T13:49:59.500Z,18.30
2018-06-19T13:52:27.842Z,20.67
2018-06-19T13:57:23.014Z,20.43
2018-06-19T13:59:51.477Z,23.37
2018-06-19T14:02:19.924Z,23.97
2018-06-19T14:04:48.805Z,23.07
2018-06-19T14:07:17.272Z,23.17
2018-06-19T14:09:57.141Z,27.47
2018-06-19T14:12:39.821Z,21.27
2018-06-19T14:15:07.949Z,22.00
2018-06-19T14:17:36.430Z,20.27
2018-06-19T14:20:05.186Z,20.53
2018-06-19T14:22:33.653Z,20.67
2018-06-19T14:25:02.110Z,20.83
2018-06-19T14:27:30.226Z,19.67
2018-06-19T14:29:58.379Z,20.17
2018-06-19T14:32:26.739Z,22.83
2018-06-19T14:34:54.872Z,19.47
2018-06-19T14:37:23.022Z,21.03
2018-06-19T14:39:51.158Z,20.07
2018-06-19T14:42:19.309Z,19.97
2018-06-19T14:44:47.502Z,28.33
2018-06-19T14:47:15.843Z,21.43
2018-06-19T14:49:44.023Z,21.93
2018-06-19T14:52:12.190Z,26.53
2018-06-19T14:54:40.714Z,21.70
2018-06-19T14:57:08.889Z,25.40
2018-06-19T14:59:37.022Z,22.70
2018-06-19T15:02:05.774Z,24.90
2018-06-19T15:04:34.714Z,23.10
2018-06-19T15:07:03.210Z,23.60
2018-06-19T15:09:31.965Z,21.37
2018-06-19T15:12:00.531Z,29.40
2018-06-19T15:14:28.662Z,24.40
2018-06-19T15:16:56.786Z,25.50
2018-06-19T15:19:24.954Z,36.80
2018-06-19T15:21:53.174Z,27.47
2018-06-19T15:24:21.640Z,28.40
2018-06-19T15:26:49.765Z,28.80
2018-06-19T15:29:17.933Z,31.30
2018-06-19T15:31:46.274Z,30.10
2018-06-19T15:34:14.649Z,28.70
2018-06-19T15:36:42.774Z,27.50
2018-06-19T15:39:12.669Z,24.73
2018-06-19T15:41:41.174Z,26.90
2018-06-19T15:44:09.371Z,27.33
2018-06-19T15:46:38.289Z,28.83
2018-06-19T15:49:06.873Z,25.90
2018-06-19T15:51:35.151Z,31.00
2018-06-19T15:54:03.522Z,25.40
2018-06-19T15:56:32.306Z,28.50
2018-06-19T15:59:01.089Z,25.70
2018-06-19T16:01:29.206Z,24.00
2018-06-19T16:03:57.909Z,32.13
2018-06-19T16:06:26.541Z,25.30
2018-06-19T16:08:54.666Z,26.87
2018-06-19T16:11:23.132Z,28.70
2018-06-19T16:13:51.271Z,33.00
2018-06-19T16:16:19.554Z,30.23
2018-06-19T16:18:47.673Z,26.53
2018-06-19T16:21:16.169Z,31.23
2018-06-19T16:23:44.477Z,27.30
2018-06-19T16:26:12.652Z,27.27
2018-06-19T16:28:40.792Z,30.10
2018-06-19T16:33:59.702Z,26.57
2018-06-19T16:36:27.939Z,24.13
2018-06-19T16:38:56.414Z,21.30
2018-06-19T16:41:24.553Z,20.97
2018-06-19T16:43:53.258Z,25.23
2018-06-19T16:46:21.397Z,22.53
2018-06-19T16:48:49.546Z,25.80
2018-06-19T16:51:17.885Z,21.00
2018-06-19T16:53:46.091Z,22.10
2018-06-19T16:56:14.689Z,23.97
2018-06-19T16:58:42.833Z,22.57
2018-06-19T17:01:11.350Z,23.40
2018-06-19T17:03:39.489Z,23.40
2018-06-19T17:06:07.981Z,24.50
2018-06-19T17:08:36.104Z,26.00
2018-06-19T17:11:04.225Z,25.53
2018-06-19T17:13:32.697Z,22.90
2018-06-19T17:16:00.829Z,26.93
2018-06-19T17:18:28.950Z,27.13
2018-06-19T17:20:57.079Z,26.93
2018-06-19T17:23:25.237Z,24.87
2018-06-19T17:25:53.557Z,24.90
2018-06-19T17:28:22.013Z,26.40
2018-06-19T17:30:50.137Z,26.43
2018-06-19T17:33:18.409Z,24.43
2018-06-19T17:35:46.550Z,24.63
2018-06-19T17:38:15.017Z,29.17
2018-06-19T17:40:43.495Z,25.73
2018-06-19T17:43:12.185Z,32.23
2018-06-19T17:45:40.662Z,30.83
2018-06-19T17:48:09.119Z,27.00
2018-06-19T17:50:37.245Z,25.60
2018-06-19T17:53:05.403Z,26.60
2018-06-19T17:55:33.849Z,26.33
2018-06-19T17:58:01.997Z,24.57
2018-06-19T18:00:30.544Z,28.10
2018-06-19T18:02:58.665Z,24.00
2018-06-19T18:05:26.801Z,25.60
2018-06-19T18:07:55.261Z,24.07
2018-06-19T18:10:23.381Z,25.57
2018-06-19T18:12:51.876Z,22.13
2018-06-19T18:15:20.363Z,25.00
2018-06-19T18:17:48.677Z,25.03
2018-06-19T18:20:16.821Z,29.53
2018-06-19T18:22:45.177Z,23.73
2018-06-19T18:25:13.309Z,25.13
2018-06-19T18:27:41.462Z,27.40
2018-06-19T18:30:09.946Z,25.17
2018-06-19T18:32:38.090Z,28.40
2018-06-19T18:35:07.907Z,24.33
2018-06-19T18:37:36.405Z,25.90
2018-06-19T18:40:04.592Z,23.33
2018-06-19T18:42:32.762Z,27.70
2018-06-19T18:45:01.239Z,22.30
2018-06-19T18:47:29.725Z,24.93
2018-06-19T18:49:58.271Z,26.53
2018-06-19T18:52:26.419Z,26.30
2018-06-19T18:54:54.705Z,25.10
2018-06-19T18:57:22.869Z,25.53
2018-06-19T18:59:51.329Z,26.93
2018-06-19T19:02:19.462Z,25.20
2018-06-19T19:04:47.909Z,24.47
2018-06-19T19:07:16.449Z,26.47
2018-06-19T19:09:50.160Z,28.30
2018-06-19T19:12:18.703Z,24.00
2018-06-19T19:14:52.169Z,25.00
2018-06-19T19:17:25.961Z,25.67
2018-06-19T19:19:54.414Z,27.10
2018-06-19T19:22:23.171Z,27.57
2018-06-19T19:24:51.528Z,29.63
2018-06-19T19:27:25.309Z,23.87
2018-06-19T19:29:53.786Z,22.20
2018-06-19T19:32:21.922Z,26.43
2018-06-19T19:34:50.061Z,25.87
2018-06-19T19:37:23.870Z,22.70
2018-06-19T19:39:51.985Z,24.57
2018-06-19T19:42:20.426Z,25.57
2018-06-19T19:44:48.782Z,23.10
2018-06-19T19:47:22.659Z,22.30
2018-06-19T19:49:51.109Z,21.30
2018-06-19T19:52:19.249Z,24.83
2018-06-19T19:54:47.389Z,24.03
2018-06-19T19:57:21.045Z,20.10
2018-06-19T19:59:49.197Z,22.70
2018-06-19T20:02:17.497Z,20.67
2018-06-19T20:04:45.649Z,24.27
2018-06-19T20:07:14.113Z,22.30
2018-06-19T20:09:42.577Z,22.13
2018-06-19T20:12:10.944Z,22.60
2018-06-19T20:14:39.630Z,23.30
2018-06-19T20:17:07.787Z,20.20
2018-06-19T20:19:35.909Z,18.40
2018-06-19T20:22:04.217Z,22.80
2018-06-19T20:24:32.683Z,21.83
2018-06-19T20:27:00.814Z,20.10
2018-06-19T20:29:29.470Z,17.30
2018-06-19T20:31:57.969Z,18.13
2018-06-19T20:34:26.089Z,18.63
2018-06-19T20:36:54.271Z,20.00
2018-06-19T20:39:23.466Z,22.60
2018-06-19T20:41:51.965Z,25.97
2018-06-19T20:44:20.134Z,24.40
2018-06-19T20:46:48.294Z,25.93
2018-06-19T20:49:16.599Z,24.73
2018-06-19T20:51:44.733Z,25.17
2018-06-19T20:54:12.853Z,30.63
2018-06-19T20:56:41.325Z,24.13
2018-06-19T20:59:09.438Z,25.17
2018-06-19T21:01:38.153Z,25.83
2018-06-19T21:04:06.309Z,27.57
2018-06-19T21:06:34.777Z,24.47
2018-06-19T21:09:03.586Z,24.47
2018-06-19T21:11:31.709Z,25.33
2018-06-19T21:14:00.242Z,24.70
2018-06-19T21:16:28.493Z,26.53
2018-06-19T21:18:56.658Z,25.27
2018-06-19T21:21:25.162Z,27.00
2018-06-19T21:23:53.634Z,29.13
2018-06-19T21:26:21.790Z,27.43
2018-06-19T21:28:51.580Z,28.17
2018-06-19T21:31:19.996Z,28.07
2018-06-19T21:33:48.445Z,26.47
2018-06-19T21:36:18.138Z,24.30
2018-06-19T21:38:46.278Z,24.97
2018-06-19T21:41:14.421Z,24.50
2018-06-19T21:43:42.582Z,26.73
2018-06-19T21:46:11.153Z,25.07
2018-06-19T21:48:39.637Z,26.13
2018-06-19T21:51:07.802Z,22.60
2018-06-19T21:53:36.273Z,23.80
2018-06-19T21:56:04.921Z,23.20
2018-06-19T21:58:33.110Z,24.27
2018-06-19T22:01:01.590Z,24.63
2018-06-19T22:03:29.841Z,24.67
2018-06-19T22:05:57.993Z,24.17
2018-06-19T22:08:34.701Z,25.53
2018-06-19T22:11:03.190Z,23.10
2018-06-19T22:13:31.555Z,26.10
2018-06-19T22:16:00.206Z,24.03
2018-06-19T22:18:28.693Z,21.87
2018-06-19T22:20:56.818Z,21.93
2018-06-19T22:23:24.974Z,23.57
2018-06-19T22:25:53.106Z,29.03
2018-06-19T22:28:21.241Z,25.50
2018-06-19T22:30:49.385Z,24.20
2018-06-19T22:33:17.858Z,25.00
2018-06-19T22:35:45.991Z,22.20
2018-06-19T22:38:14.350Z,18.67
2018-06-19T22:40:42.814Z,20.60
2018-06-19T22:43:10.945Z,23.77
2018-06-19T22:45:39.402Z,21.33
2018-06-19T22:48:07.901Z,23.23
2018-06-19T22:50:36.033Z,17.57
2018-06-19T22:53:04.209Z,22.10
2018-06-19T22:55:32.450Z,18.13
2018-06-19T22:58:00.586Z,19.30
2018-06-19T23:00:29.089Z,18.77
2018-06-19T23:03:04.659Z,18.47
2018-06-19T23:05:34.546Z,20.47
2018-06-19T23:08:02.738Z,20.30
2018-06-19T23:10:31.085Z,18.17
2018-06-19T23:13:00.886Z,19.33
2018-06-19T23:15:29.353Z,19.23
2018-06-19T23:17:57.830Z,21.33
2018-06-19T23:20:26.153Z,21.00
2018-06-19T23:22:54.609Z,20.07
2018-06-19T23:25:22.746Z,22.20
2018-06-19T23:27:51.493Z,26.07
2018-06-19T23:30:19.830Z,24.30
2018-06-19T23:32:48.297Z,20.63
2018-06-19T23:35:16.773Z,25.00
2018-06-19T23:37:44.914Z,22.20
2018-06-19T23:40:13.061Z,23.17
2018-06-19T23:42:41.218Z,22.33
2018-06-19T23:45:09.375Z,21.00
2018-06-19T23:47:37.868Z,22.10
2018-06-19T23:50:06.261Z,22.67
2018-06-19T23:52:34.410Z,20.47
2018-06-19T23:55:02.738Z,20.60
2018-06-19T23:57:31.218Z,21.60
2018-06-19T23:59:59.691Z,21.70
